sensor_id;sensor_type;location;lat;lon;timestamp;temperature;humidity
44573;DHT22;31762;45.420;10.072;2022-11-02T00:02:57;13.40;99.90
44573;DHT22;31762;45.420;10.072;2022-11-02T00:07:59;13.40;99.90
44573;DHT22;31762;45.420;10.072;2022-11-02T00:13:01;13.30;99.90
44573;DHT22;31762;45.420;10.072;2022-11-02T00:18:10;13.30;99.90
44573;DHT22;31762;45.420;10.072;2022-11-02T00:23:13;13.00;99.90
44573;DHT22;31762;45.420;10.072;2022-11-02T00:28:16;12.80;99.90
44573;DHT22;31762;45.420;10.072;2022-11-02T00:33:18;12.90;99.90
44573;DHT22;31762;45.420;10.072;2022-11-02T00:38:19;12.70;99.90
44573;DHT22;31762;45.420;10.072;2022-11-02T00:43:21;12.60;99.90
44573;DHT22;31762;45.420;10.072;2022-11-02T00:48:23;12.50;99.90
44573;DHT22;31762;45.420;10.072;2022-11-02T00:53:25;12.70;99.90
44573;DHT22;31762;45.420;10.072;2022-11-02T00:58:26;12.60;99.90
44573;DHT22;31762;45.420;10.072;2022-11-02T01:03:28;12.60;99.90
44573;DHT22;31762;45.420;10.072;2022-11-02T01:08:31;12.50;99.90
44573;DHT22;31762;45.420;10.072;2022-11-02T01:13:33;12.40;99.90
44573;DHT22;31762;45.420;10.072;2022-11-02T01:18:35;12.50;99.90
44573;DHT22;31762;45.420;10.072;2022-11-02T01:23:37;12.60;99.90
44573;DHT22;31762;45.420;10.072;2022-11-02T01:28:39;12.70;99.90
44573;DHT22;31762;45.420;10.072;2022-11-02T01:33:45;12.80;99.90
44573;DHT22;31762;45.420;10.072;2022-11-02T01:38:48;12.70;99.90
44573;DHT22;31762;45.420;10.072;2022-11-02T01:43:53;12.70;99.90
44573;DHT22;31762;45.420;10.072;2022-11-02T01:49:13;12.90;99.90
44573;DHT22;31762;45.420;10.072;2022-11-02T01:54:20;12.90;99.90
44573;DHT22;31762;45.420;10.072;2022-11-02T01:59:28;13.00;99.90
44573;DHT22;31762;45.420;10.072;2022-11-02T02:04:31;13.00;99.90
44573;DHT22;31762;45.420;10.072;2022-11-02T02:09:33;12.90;99.90
44573;DHT22;31762;45.420;10.072;2022-11-02T02:14:35;12.70;99.90
44573;DHT22;31762;45.420;10.072;2022-11-02T02:30:18;12.50;99.90
44573;DHT22;31762;45.420;10.072;2022-11-02T02:35:32;12.60;99.90
44573;DHT22;31762;45.420;10.072;2022-11-02T02:51:00;12.30;99.90
44573;DHT22;31762;45.420;10.072;2022-11-02T02:56:03;12.30;99.90
44573;DHT22;31762;45.420;10.072;2022-11-02T03:01:10;12.60;99.90
44573;DHT22;31762;45.420;10.072;2022-11-02T03:06:33;12.30;99.90
44573;DHT22;31762;45.420;10.072;2022-11-02T03:11:50;12.00;99.90
44573;DHT22;31762;45.420;10.072;2022-11-02T03:22:01;12.50;99.90
44573;DHT22;31762;45.420;10.072;2022-11-02T03:27:22;12.50;99.90
44573;DHT22;31762;45.420;10.072;2022-11-02T03:37:57;12.80;99.90
44573;DHT22;31762;45.420;10.072;2022-11-02T03:43:03;12.60;99.90
44573;DHT22;31762;45.420;10.072;2022-11-02T03:48:07;12.40;99.90
44573;DHT22;31762;45.420;10.072;2022-11-02T03:53:20;12.30;99.90
44573;DHT22;31762;45.420;10.072;2022-11-02T03:58:23;12.30;99.90
44573;DHT22;31762;45.420;10.072;2022-11-02T04:03:24;12.10;99.90
44573;DHT22;31762;45.420;10.072;2022-11-02T04:08:38;12.00;99.90
44573;DHT22;31762;45.420;10.072;2022-11-02T04:13:40;12.10;99.90
44573;DHT22;31762;45.420;10.072;2022-11-02T04:18:42;12.00;99.90
44573;DHT22;31762;45.420;10.072;2022-11-02T04:23:44;12.00;99.90
44573;DHT22;31762;45.420;10.072;2022-11-02T04:28:46;11.90;99.90
44573;DHT22;31762;45.420;10.072;2022-11-02T04:33:47;12.00;99.90
44573;DHT22;31762;45.420;10.072;2022-11-02T04:38:49;12.00;99.90
44573;DHT22;31762;45.420;10.072;2022-11-02T04:43:51;12.00;99.90
44573;DHT22;31762;45.420;10.072;2022-11-02T04:48:53;11.90;99.90
44573;DHT22;31762;45.420;10.072;2022-11-02T04:53:56;12.40;99.90
44573;DHT22;31762;45.420;10.072;2022-11-02T04:58:59;12.40;99.90
44573;DHT22;31762;45.420;10.072;2022-11-02T05:04:00;12.50;99.90
44573;DHT22;31762;45.420;10.072;2022-11-02T05:09:02;12.30;99.90
44573;DHT22;31762;45.420;10.072;2022-11-02T05:14:04;12.20;99.90
44573;DHT22;31762;45.420;10.072;2022-11-02T05:19:06;12.30;99.90
44573;DHT22;31762;45.420;10.072;2022-11-02T05:24:11;12.30;99.90
44573;DHT22;31762;45.420;10.072;2022-11-02T05:29:13;12.60;99.90
44573;DHT22;31762;45.420;10.072;2022-11-02T05:34:15;12.60;99.90
44573;DHT22;31762;45.420;10.072;2022-11-02T05:39:16;12.80;99.90
44573;DHT22;31762;45.420;10.072;2022-11-02T05:44:18;13.10;99.90
44573;DHT22;31762;45.420;10.072;2022-11-02T05:49:20;13.10;99.90
44573;DHT22;31762;45.420;10.072;2022-11-02T05:54:21;13.00;99.90
44573;DHT22;31762;45.420;10.072;2022-11-02T05:59:23;13.10;99.90
44573;DHT22;31762;45.420;10.072;2022-11-02T06:04:25;13.30;99.90
44573;DHT22;31762;45.420;10.072;2022-11-02T06:09:26;13.30;99.90
44573;DHT22;31762;45.420;10.072;2022-11-02T06:14:28;13.20;99.90
44573;DHT22;31762;45.420;10.072;2022-11-02T06:19:30;13.20;99.90
44573;DHT22;31762;45.420;10.072;2022-11-02T06:24:31;13.10;99.90
44573;DHT22;31762;45.420;10.072;2022-11-02T06:29:33;13.10;99.90
44573;DHT22;31762;45.420;10.072;2022-11-02T06:34:35;13.00;99.90
44573;DHT22;31762;45.420;10.072;2022-11-02T06:39:36;12.80;99.90
44573;DHT22;31762;45.420;10.072;2022-11-02T06:44:38;12.90;99.90
44573;DHT22;31762;45.420;10.072;2022-11-02T06:49:40;13.00;99.90
44573;DHT22;31762;45.420;10.072;2022-11-02T06:54:41;12.90;99.90
44573;DHT22;31762;45.420;10.072;2022-11-02T06:59:43;12.90;99.90
44573;DHT22;31762;45.420;10.072;2022-11-02T07:04:48;13.10;99.90
44573;DHT22;31762;45.420;10.072;2022-11-02T07:09:50;13.00;99.90
44573;DHT22;31762;45.420;10.072;2022-11-02T07:14:52;12.90;99.90
44573;DHT22;31762;45.420;10.072;2022-11-02T07:19:53;13.40;99.90
44573;DHT22;31762;45.420;10.072;2022-11-02T07:24:55;13.30;99.90
44573;DHT22;31762;45.420;10.072;2022-11-02T07:29:57;13.60;99.90
44573;DHT22;31762;45.420;10.072;2022-11-02T07:34:58;13.70;99.90
44573;DHT22;31762;45.420;10.072;2022-11-02T07:40:00;13.90;99.90
44573;DHT22;31762;45.420;10.072;2022-11-02T07:45:02;13.70;99.90
44573;DHT22;31762;45.420;10.072;2022-11-02T07:50:04;13.90;99.90
44573;DHT22;31762;45.420;10.072;2022-11-02T07:55:06;13.90;99.90
44573;DHT22;31762;45.420;10.072;2022-11-02T08:00:10;13.80;99.90
44573;DHT22;31762;45.420;10.072;2022-11-02T08:05:12;13.50;99.90
44573;DHT22;31762;45.420;10.072;2022-11-02T08:10:13;13.60;99.90
44573;DHT22;31762;45.420;10.072;2022-11-02T08:15:15;13.60;99.90
44573;DHT22;31762;45.420;10.072;2022-11-02T08:20:17;13.50;99.90
44573;DHT22;31762;45.420;10.072;2022-11-02T08:25:18;13.80;99.90
44573;DHT22;31762;45.420;10.072;2022-11-02T08:30:21;13.80;99.90
44573;DHT22;31762;45.420;10.072;2022-11-02T08:35:22;14.10;99.90
44573;DHT22;31762;45.420;10.072;2022-11-02T08:40:24;14.10;99.90
44573;DHT22;31762;45.420;10.072;2022-11-02T08:45:27;14.20;99.90
44573;DHT22;31762;45.420;10.072;2022-11-02T08:50:39;14.80;99.90
44573;DHT22;31762;45.420;10.072;2022-11-02T08:55:41;15.00;99.90
44573;DHT22;31762;45.420;10.072;2022-11-02T09:00:42;15.20;99.90
44573;DHT22;31762;45.420;10.072;2022-11-02T09:05:45;15.10;99.90
44573;DHT22;31762;45.420;10.072;2022-11-02T09:10:50;15.10;99.90
44573;DHT22;31762;45.420;10.072;2022-11-02T09:15:53;15.10;99.90
44573;DHT22;31762;45.420;10.072;2022-11-02T09:20:59;15.30;99.90
44573;DHT22;31762;45.420;10.072;2022-11-02T09:26:01;15.40;99.90
44573;DHT22;31762;45.420;10.072;2022-11-02T09:31:03;15.70;99.90
44573;DHT22;31762;45.420;10.072;2022-11-02T09:36:11;15.70;99.90
44573;DHT22;31762;45.420;10.072;2022-11-02T09:42:00;15.60;99.90
44573;DHT22;31762;45.420;10.072;2022-11-02T09:46:38;15.60;99.90
44573;DHT22;31762;45.420;10.072;2022-11-02T09:51:54;15.70;99.90
44573;DHT22;31762;45.420;10.072;2022-11-02T09:57:10;15.50;99.90
44573;DHT22;31762;45.420;10.072;2022-11-02T10:18:01;16.30;99.90
44573;DHT22;31762;45.420;10.072;2022-11-02T10:23:14;16.10;99.90
44573;DHT22;31762;45.420;10.072;2022-11-02T10:28:23;16.90;99.90
44573;DHT22;31762;45.420;10.072;2022-11-02T10:33:28;16.20;99.90
44573;DHT22;31762;45.420;10.072;2022-11-02T10:38:52;15.80;99.90
44573;DHT22;31762;45.420;10.072;2022-11-02T10:49:41;15.90;99.90
44573;DHT22;31762;45.420;10.072;2022-11-02T10:54:49;16.10;99.90
44573;DHT22;31762;45.420;10.072;2022-11-02T11:05:53;15.70;99.90
44573;DHT22;31762;45.420;10.072;2022-11-02T11:10:53;15.90;99.90
44573;DHT22;31762;45.420;10.072;2022-11-02T11:15:55;16.10;99.90
44573;DHT22;31762;45.420;10.072;2022-11-02T11:20:58;16.40;99.90
44573;DHT22;31762;45.420;10.072;2022-11-02T11:26:05;16.30;99.90
44573;DHT22;31762;45.420;10.072;2022-11-02T11:31:13;16.10;99.90
44573;DHT22;31762;45.420;10.072;2022-11-02T11:36:35;16.10;99.90
44573;DHT22;31762;45.420;10.072;2022-11-02T11:41:39;16.10;99.90
44573;DHT22;31762;45.420;10.072;2022-11-02T11:46:43;16.20;99.90
44573;DHT22;31762;45.420;10.072;2022-11-02T11:51:53;16.20;99.90
44573;DHT22;31762;45.420;10.072;2022-11-02T11:56:58;16.30;99.90
44573;DHT22;31762;45.420;10.072;2022-11-02T12:02:00;16.10;99.90
44573;DHT22;31762;45.420;10.072;2022-11-02T12:23:37;16.50;99.90
44573;DHT22;31762;45.420;10.072;2022-11-02T12:44:45;17.10;99.90
44573;DHT22;31762;45.420;10.072;2022-11-02T12:55:32;17.20;99.90
44573;DHT22;31762;45.420;10.072;2022-11-02T13:00:41;17.10;99.90
44573;DHT22;31762;45.420;10.072;2022-11-02T13:05:49;17.00;99.90
44573;DHT22;31762;45.420;10.072;2022-11-02T13:10:58;16.90;99.90
44573;DHT22;31762;45.420;10.072;2022-11-02T13:16:07;17.00;99.90
44573;DHT22;31762;45.420;10.072;2022-11-02T13:21:11;16.70;99.90
44573;DHT22;31762;45.420;10.072;2022-11-02T13:26:33;16.60;99.90
44573;DHT22;31762;45.420;10.072;2022-11-02T13:31:40;16.50;99.90
44573;DHT22;31762;45.420;10.072;2022-11-02T13:36:43;16.50;99.90
44573;DHT22;31762;45.420;10.072;2022-11-02T13:52:56;16.60;99.90
44573;DHT22;31762;45.420;10.072;2022-11-02T13:57:56;16.40;99.90
44573;DHT22;31762;45.420;10.072;2022-11-02T14:03:11;16.90;99.90
44573;DHT22;31762;45.420;10.072;2022-11-02T14:08:46;16.70;99.90
44573;DHT22;31762;45.420;10.072;2022-11-02T14:40:49;16.50;99.90
44573;DHT22;31762;45.420;10.072;2022-11-02T14:51:25;16.40;99.90
44573;DHT22;31762;45.420;10.072;2022-11-02T15:01:59;16.60;99.90
44573;DHT22;31762;45.420;10.072;2022-11-02T15:07:04;16.70;99.90
44573;DHT22;31762;45.420;10.072;2022-11-02T15:12:26;16.60;99.90
44573;DHT22;31762;45.420;10.072;2022-11-02T15:22:52;16.30;99.90
44573;DHT22;31762;45.420;10.072;2022-11-02T15:27:56;16.00;99.90
44573;DHT22;31762;45.420;10.072;2022-11-02T15:33:05;16.00;99.90
44573;DHT22;31762;45.420;10.072;2022-11-02T15:38:11;16.00;99.90
44573;DHT22;31762;45.420;10.072;2022-11-02T15:43:52;15.80;99.90
44573;DHT22;31762;45.420;10.072;2022-11-02T15:59:41;15.90;99.90
44573;DHT22;31762;45.420;10.072;2022-11-02T16:04:47;15.80;99.90
44573;DHT22;31762;45.420;10.072;2022-11-02T16:09:50;15.80;99.90
44573;DHT22;31762;45.420;10.072;2022-11-02T16:14:57;15.60;99.90
44573;DHT22;31762;45.420;10.072;2022-11-02T16:25:20;15.70;99.90
44573;DHT22;31762;45.420;10.072;2022-11-02T16:30:22;15.70;99.90
44573;DHT22;31762;45.420;10.072;2022-11-02T16:35:25;15.70;99.90
44573;DHT22;31762;45.420;10.072;2022-11-02T16:40:27;15.60;99.90
44573;DHT22;31762;45.420;10.072;2022-11-02T16:45:34;15.70;99.90
44573;DHT22;31762;45.420;10.072;2022-11-02T16:51:16;15.60;99.90
44573;DHT22;31762;45.420;10.072;2022-11-02T16:56:26;15.60;99.90
44573;DHT22;31762;45.420;10.072;2022-11-02T17:01:37;15.40;99.90
44573;DHT22;31762;45.420;10.072;2022-11-02T17:06:40;15.40;99.90
44573;DHT22;31762;45.420;10.072;2022-11-02T17:11:42;15.70;99.90
44573;DHT22;31762;45.420;10.072;2022-11-02T17:17:07;15.80;99.90
44573;DHT22;31762;45.420;10.072;2022-11-02T17:22:13;15.80;99.90
44573;DHT22;31762;45.420;10.072;2022-11-02T17:27:17;15.80;99.90
44573;DHT22;31762;45.420;10.072;2022-11-02T17:32:22;15.80;99.90
44573;DHT22;31762;45.420;10.072;2022-11-02T17:37:28;15.80;99.90
44573;DHT22;31762;45.420;10.072;2022-11-02T17:42:31;15.80;99.90
44573;DHT22;31762;45.420;10.072;2022-11-02T17:47:32;15.90;99.90
44573;DHT22;31762;45.420;10.072;2022-11-02T17:52:34;15.80;99.90
44573;DHT22;31762;45.420;10.072;2022-11-02T17:57:36;15.90;99.90
44573;DHT22;31762;45.420;10.072;2022-11-02T18:02:39;15.80;99.90
44573;DHT22;31762;45.420;10.072;2022-11-02T18:07:41;15.70;99.90
44573;DHT22;31762;45.420;10.072;2022-11-02T18:12:43;15.70;99.90
44573;DHT22;31762;45.420;10.072;2022-11-02T18:17:45;15.40;99.90
44573;DHT22;31762;45.420;10.072;2022-11-02T18:22:47;15.50;99.90
44573;DHT22;31762;45.420;10.072;2022-11-02T18:27:49;15.50;99.90
44573;DHT22;31762;45.420;10.072;2022-11-02T18:32:53;15.70;99.90
44573;DHT22;31762;45.420;10.072;2022-11-02T18:37:55;15.60;99.90
44573;DHT22;31762;45.420;10.072;2022-11-02T18:42:57;15.50;99.90
44573;DHT22;31762;45.420;10.072;2022-11-02T18:47:59;15.00;99.90
44573;DHT22;31762;45.420;10.072;2022-11-02T18:53:01;15.20;99.90
44573;DHT22;31762;45.420;10.072;2022-11-02T18:58:02;15.00;99.90
44573;DHT22;31762;45.420;10.072;2022-11-02T19:03:05;15.10;99.90
44573;DHT22;31762;45.420;10.072;2022-11-02T19:08:08;15.30;99.90
44573;DHT22;31762;45.420;10.072;2022-11-02T19:13:10;15.20;99.90
44573;DHT22;31762;45.420;10.072;2022-11-02T19:18:12;15.40;99.90
44573;DHT22;31762;45.420;10.072;2022-11-02T19:23:13;15.30;99.90
44573;DHT22;31762;45.420;10.072;2022-11-02T19:28:15;15.40;99.90
44573;DHT22;31762;45.420;10.072;2022-11-02T19:33:17;15.50;99.90
44573;DHT22;31762;45.420;10.072;2022-11-02T19:38:19;15.30;99.90
44573;DHT22;31762;45.420;10.072;2022-11-02T19:43:20;15.10;99.90
44573;DHT22;31762;45.420;10.072;2022-11-02T19:48:22;15.10;99.90
44573;DHT22;31762;45.420;10.072;2022-11-02T19:53:24;15.20;99.90
44573;DHT22;31762;45.420;10.072;2022-11-02T19:58:26;15.10;99.90
44573;DHT22;31762;45.420;10.072;2022-11-02T20:03:27;15.00;99.90
44573;DHT22;31762;45.420;10.072;2022-11-02T20:08:29;15.10;99.90
44573;DHT22;31762;45.420;10.072;2022-11-02T20:13:32;15.20;99.90
44573;DHT22;31762;45.420;10.072;2022-11-02T20:18:36;15.40;99.90
44573;DHT22;31762;45.420;10.072;2022-11-02T20:23:38;15.30;99.90
44573;DHT22;31762;45.420;10.072;2022-11-02T20:28:42;15.20;99.90
44573;DHT22;31762;45.420;10.072;2022-11-02T20:33:44;15.50;99.90
44573;DHT22;31762;45.420;10.072;2022-11-02T20:38:46;15.60;99.90
44573;DHT22;31762;45.420;10.072;2022-11-02T20:43:49;15.60;99.90
44573;DHT22;31762;45.420;10.072;2022-11-02T20:48:51;15.60;99.90
44573;DHT22;31762;45.420;10.072;2022-11-02T20:53:53;15.70;99.90
44573;DHT22;31762;45.420;10.072;2022-11-02T20:58:55;15.60;99.90
44573;DHT22;31762;45.420;10.072;2022-11-02T21:03:57;15.50;99.90
44573;DHT22;31762;45.420;10.072;2022-11-02T21:08:59;15.30;99.90
44573;DHT22;31762;45.420;10.072;2022-11-02T21:14:00;15.40;99.90
44573;DHT22;31762;45.420;10.072;2022-11-02T21:19:02;15.20;99.90
44573;DHT22;31762;45.420;10.072;2022-11-02T21:24:04;15.30;99.90
44573;DHT22;31762;45.420;10.072;2022-11-02T21:29:06;15.30;99.90
44573;DHT22;31762;45.420;10.072;2022-11-02T21:34:07;15.40;99.90
44573;DHT22;31762;45.420;10.072;2022-11-02T21:39:09;15.30;99.90
44573;DHT22;31762;45.420;10.072;2022-11-02T21:44:11;15.40;99.90
44573;DHT22;31762;45.420;10.072;2022-11-02T21:49:12;15.40;99.90
44573;DHT22;31762;45.420;10.072;2022-11-02T21:54:14;15.20;99.90
44573;DHT22;31762;45.420;10.072;2022-11-02T21:59:16;15.10;99.90
44573;DHT22;31762;45.420;10.072;2022-11-02T22:04:20;15.10;99.90
44573;DHT22;31762;45.420;10.072;2022-11-02T22:09:22;15.30;99.90
44573;DHT22;31762;45.420;10.072;2022-11-02T22:14:24;15.50;99.90
44573;DHT22;31762;45.420;10.072;2022-11-02T22:19:25;15.20;99.90
44573;DHT22;31762;45.420;10.072;2022-11-02T22:24:27;15.10;99.90
44573;DHT22;31762;45.420;10.072;2022-11-02T22:29:29;15.00;99.90
44573;DHT22;31762;45.420;10.072;2022-11-02T22:34:30;15.10;99.90
44573;DHT22;31762;45.420;10.072;2022-11-02T22:39:32;15.10;99.90
44573;DHT22;31762;45.420;10.072;2022-11-02T22:44:34;15.50;99.90
44573;DHT22;31762;45.420;10.072;2022-11-02T22:49:36;15.30;99.90
44573;DHT22;31762;45.420;10.072;2022-11-02T22:54:37;15.40;99.90
44573;DHT22;31762;45.420;10.072;2022-11-02T22:59:39;15.60;99.90
44573;DHT22;31762;45.420;10.072;2022-11-02T23:04:41;15.40;99.90
44573;DHT22;31762;45.420;10.072;2022-11-02T23:09:43;15.50;99.90
44573;DHT22;31762;45.420;10.072;2022-11-02T23:14:44;15.40;99.90
44573;DHT22;31762;45.420;10.072;2022-11-02T23:19:46;15.50;99.90
44573;DHT22;31762;45.420;10.072;2022-11-02T23:24:50;15.40;99.90
44573;DHT22;31762;45.420;10.072;2022-11-02T23:29:51;15.30;99.90
44573;DHT22;31762;45.420;10.072;2022-11-02T23:34:54;15.30;99.90
44573;DHT22;31762;45.420;10.072;2022-11-02T23:39:56;15.10;99.90
44573;DHT22;31762;45.420;10.072;2022-11-02T23:44:58;15.20;99.90
44573;DHT22;31762;45.420;10.072;2022-11-02T23:50:00;15.40;99.90
44573;DHT22;31762;45.420;10.072;2022-11-02T23:55:02;15.20;99.90
